Time;durP1;ratioP1;P1;durP2;ratioP2;P2;SDS_P1;SDS_P2;PMS_P1;PMS_P2;Temp;Humidity;BMP_temperature;BMP_pressure;BME280_temperature;BME280_humidity;BME280_pressure;Samples;Min_cycle;Max_cycle;Signal;HPM_P1;HPM_P2
2022/03/30 00:00:47;;;;;;;31.40;13.82;;;6.80;99.90;;;;;;5132720;27;20035;-51
2022/03/30 00:03:12;;;;;;;28.15;14.18;;;6.70;99.90;;;;;;5132802;27;20066;-53
2022/03/30 00:05:38;;;;;;;27.80;14.45;;;6.70;99.90;;;;;;5132356;27;20041;-50
2022/03/30 00:08:05;;;;;;;32.97;14.60;;;6.80;99.90;;;;;;5132573;27;20066;-55
2022/03/30 00:10:32;;;;;;;29.48;14.55;;;6.80;99.90;;;;;;5133173;27;20041;-48
2022/03/30 00:12:58;;;;;;;28.85;14.68;;;6.80;99.90;;;;;;5132624;27;20070;-49
2022/03/30 00:15:24;;;;;;;29.17;14.60;;;6.80;99.90;;;;;;5132856;27;20541;-49
2022/03/30 00:17:51;;;;;;;34.95;14.95;;;6.80;99.90;;;;;;5132594;27;20047;-50
2022/03/30 00:20:17;;;;;;;33.28;14.90;;;6.80;99.90;;;;;;5132316;27;20043;-46
2022/03/30 00:22:42;;;;;;;28.42;13.40;;;6.70;99.90;;;;;;5132488;27;20049;-49
2022/03/30 00:25:10;;;;;;;24.63;13.15;;;6.70;99.90;;;;;;5132125;27;20114;-48
2022/03/30 00:27:37;;;;;;;31.65;13.73;;;6.80;99.90;;;;;;5132629;27;20031;-46
2022/03/30 00:30:04;;;;;;;29.33;13.57;;;6.70;99.90;;;;;;5132500;27;20065;-48
2022/03/30 00:32:31;;;;;;;28.33;13.98;;;6.60;99.90;;;;;;5132705;27;20043;-48
2022/03/30 00:34:57;;;;;;;36.83;14.60;;;6.60;99.90;;;;;;5132235;27;20035;-49
2022/03/30 00:37:22;;;;;;;31.67;14.85;;;6.60;99.90;;;;;;5132459;27;20482;-50
2022/03/30 00:39:48;;;;;;;32.78;14.75;;;6.50;99.90;;;;;;5132322;27;20038;-51
2022/03/30 00:42:19;;;;;;;24.67;13.93;;;6.30;99.90;;;;;;5132466;27;20035;-49
2022/03/30 00:44:46;;;;;;;32.83;14.95;;;6.30;99.90;;;;;;5132351;27;20106;-48
2022/03/30 00:47:24;;;;;;;29.02;14.25;;;6.20;99.90;;;;;;5132077;27;20031;-48
2022/03/30 00:49:50;;;;;;;30.63;14.52;;;6.10;99.90;;;;;;5132369;27;20042;-49
2022/03/30 00:52:16;;;;;;;27.90;14.60;;;6.10;99.90;;;;;;5132042;27;20126;-50
2022/03/30 00:54:47;;;;;;;29.13;15.27;;;6.20;99.90;;;;;;5131822;27;20118;-49
2022/03/30 00:57:14;;;;;;;32.85;14.77;;;6.20;99.90;;;;;;5130152;27;20035;-46
2022/03/30 00:59:41;;;;;;;30.30;13.77;;;6.10;99.90;;;;;;5132131;27;20039;-49
2022/03/30 01:02:08;;;;;;;31.25;14.48;;;6.10;99.90;;;;;;5130487;27;20043;-51
2022/03/30 01:04:34;;;;;;;27.75;13.80;;;6.20;99.90;;;;;;5131343;27;20039;-47
2022/03/30 01:07:00;;;;;;;32.80;15.10;;;6.30;99.90;;;;;;5131903;27;20098;-48
2022/03/30 01:09:26;;;;;;;34.45;14.85;;;6.20;99.90;;;;;;5131885;27;20035;-50
2022/03/30 01:11:56;;;;;;;32.28;14.18;;;6.30;99.90;;;;;;5131835;27;20046;-49
2022/03/30 01:14:23;;;;;;;30.88;14.45;;;6.20;99.90;;;;;;5131754;27;20035;-48
2022/03/30 01:16:49;;;;;;;30.23;14.70;;;6.20;99.90;;;;;;5131348;27;20078;-50
2022/03/30 01:19:14;;;;;;;33.78;15.35;;;6.30;99.90;;;;;;5131974;27;20092;-50
2022/03/30 01:21:42;;;;;;;30.27;14.43;;;6.30;99.90;;;;;;5129555;28;20611;-50
2022/03/30 01:24:09;;;;;;;38.60;14.60;;;6.30;99.90;;;;;;5131417;28;20042;-50
2022/03/30 01:26:35;;;;;;;24.63;14.25;;;6.30;99.90;;;;;;5130500;28;20123;-50
2022/03/30 01:32:25;;;;;;;35.17;14.98;;;6.30;99.90;;;;;;5113101;28;20071;-50
2022/03/30 01:34:39;;;;;;;30.08;15.27;;;6.20;99.90;;;;;;5131849;28;20099;-50
2022/03/30 01:37:08;;;;;;;28.23;14.95;;;6.30;99.90;;;;;;5131139;28;20064;-52
2022/03/30 01:39:34;;;;;;;30.77;15.05;;;6.20;99.90;;;;;;5131342;28;20031;-47
2022/03/30 01:42:00;;;;;;;31.92;15.45;;;6.10;99.90;;;;;;5131441;28;20040;-53
2022/03/30 01:44:26;;;;;;;33.15;15.43;;;6.00;99.90;;;;;;5131465;28;20037;-48
2022/03/30 01:46:52;;;;;;;31.75;14.85;;;6.00;99.90;;;;;;5131150;28;20031;-52
2022/03/30 01:49:21;;;;;;;34.10;15.70;;;6.10;99.90;;;;;;5131486;28;20035;-47
2022/03/30 01:51:54;;;;;;;31.15;14.98;;;6.00;99.90;;;;;;5130821;28;20047;-50
2022/03/30 01:54:22;;;;;;;29.33;14.95;;;5.90;99.90;;;;;;5130850;27;20045;-49
2022/03/30 01:56:49;;;;;;;31.48;15.25;;;6.10;99.90;;;;;;5131261;28;20074;-53
2022/03/30 01:59:16;;;;;;;31.63;15.50;;;6.00;99.90;;;;;;5131072;28;20115;-50
2022/03/30 02:01:42;;;;;;;31.27;15.02;;;6.10;99.90;;;;;;5131108;28;20513;-47
2022/03/30 02:04:08;;;;;;;33.20;16.73;;;6.10;99.90;;;;;;5131507;28;20035;-52
2022/03/30 02:06:36;;;;;;;36.90;16.95;;;6.10;99.90;;;;;;5130736;28;21339;-45
2022/03/30 02:09:02;;;;;;;36.38;16.92;;;6.00;99.90;;;;;;5112856;28;20058;-50
2022/03/30 02:11:28;;;;;;;40.28;17.52;;;6.00;99.90;;;;;;5130940;28;20046;-50
2022/03/30 02:13:55;;;;;;;37.03;16.88;;;6.00;99.90;;;;;;5131229;28;20035;-48
2022/03/30 02:16:21;;;;;;;35.20;17.80;;;6.00;99.90;;;;;;5131024;28;20497;-47
2022/03/30 02:18:47;;;;;;;43.90;19.40;;;6.00;99.90;;;;;;5131094;28;20421;-47
2022/03/30 02:21:15;;;;;;;35.80;17.75;;;6.10;99.90;;;;;;5130809;28;20043;-49
2022/03/30 02:23:41;;;;;;;36.67;18.80;;;6.00;99.90;;;;;;5130734;28;20038;-49
2022/03/30 02:26:07;;;;;;;36.33;18.27;;;6.00;99.90;;;;;;5131019;28;20035;-46
2022/03/30 02:28:33;;;;;;;43.72;18.67;;;6.10;99.90;;;;;;5133414;27;20113;-49
2022/03/30 02:31:00;;;;;;;37.20;17.95;;;6.10;99.90;;;;;;5134449;27;20118;-49
2022/03/30 02:33:26;;;;;;;37.20;17.85;;;6.00;99.90;;;;;;5135033;27;20039;-48
2022/03/30 02:35:53;;;;;;;39.67;18.10;;;6.00;99.90;;;;;;5134394;27;20398;-48
2022/03/30 02:38:19;;;;;;;40.22;19.23;;;5.90;99.90;;;;;;5134551;27;20046;-48
2022/03/30 02:40:44;;;;;;;35.25;18.02;;;5.80;99.90;;;;;;5134384;27;20047;-48
2022/03/30 02:43:10;;;;;;;41.10;18.23;;;5.70;99.90;;;;;;5134624;27;20034;-50
2022/03/30 02:45:38;;;;;;;35.88;18.45;;;5.70;99.90;;;;;;5116028;27;20091;-49
2022/03/30 02:48:19;;;;;;;39.08;19.90;;;5.70;99.90;;;;;;5134213;27;20031;-47
2022/03/30 02:50:48;;;;;;;38.95;17.60;;;5.70;99.90;;;;;;5134367;27;20491;-50
2022/03/30 02:53:17;;;;;;;40.42;18.80;;;5.50;99.90;;;;;;5132709;27;20039;-48
2022/03/30 02:55:43;;;;;;;37.20;18.45;;;5.50;99.90;;;;;;5115485;27;20096;-47
2022/03/30 02:58:10;;;;;;;35.22;18.10;;;5.50;99.90;;;;;;5133979;27;20039;-47
2022/03/30 03:00:40;;;;;;;41.63;19.48;;;5.40;99.90;;;;;;5133759;27;20047;-47
2022/03/30 03:03:07;;;;;;;38.38;18.30;;;5.30;99.90;;;;;;5134413;27;20035;-50
2022/03/30 03:05:34;;;;;;;37.92;18.60;;;5.20;99.90;;;;;;5134260;27;20035;-48
2022/03/30 03:08:00;;;;;;;37.55;18.23;;;5.30;99.90;;;;;;5133775;27;20070;-49
2022/03/30 03:10:26;;;;;;;36.90;18.45;;;5.30;99.90;;;;;;5133872;27;20035;-47
2022/03/30 03:12:53;;;;;;;37.70;18.23;;;5.40;99.90;;;;;;5132877;27;20547;-47
2022/03/30 03:15:19;;;;;;;32.88;17.10;;;5.40;99.90;;;;;;5133919;27;20167;-51
2022/03/30 03:17:45;;;;;;;36.30;18.55;;;5.30;99.90;;;;;;5133546;27;20083;-50
2022/03/30 03:20:13;;;;;;;37.88;18.38;;;5.30;99.90;;;;;;5133572;27;20055;-47
2022/03/30 03:22:40;;;;;;;36.28;18.40;;;5.30;99.90;;;;;;5133939;27;20039;-48
2022/03/30 03:25:07;;;;;;;39.28;17.58;;;5.40;99.90;;;;;;5132504;27;20099;-48
2022/03/30 03:27:33;;;;;;;35.92;18.38;;;5.30;99.90;;;;;;5133399;27;20453;-49
2022/03/30 03:29:59;;;;;;;37.38;18.05;;;5.30;99.90;;;;;;5133790;27;20031;-48
2022/03/30 03:32:25;;;;;;;38.17;19.10;;;5.40;99.90;;;;;;5133189;27;20031;-53
2022/03/30 03:34:51;;;;;;;36.33;18.55;;;5.40;99.90;;;;;;5133496;27;20035;-48
2022/03/30 03:37:16;;;;;;;38.28;19.08;;;5.50;99.90;;;;;;5133411;27;20027;-49
2022/03/30 03:39:43;;;;;;;35.22;19.45;;;5.40;99.90;;;;;;5133674;27;20081;-50
2022/03/30 03:42:09;;;;;;;35.65;18.10;;;5.50;99.90;;;;;;5133379;27;20482;-53
2022/03/30 03:44:35;;;;;;;39.42;19.13;;;5.40;99.90;;;;;;5132352;27;20031;-51
2022/03/30 03:47:01;;;;;;;38.45;19.35;;;5.40;99.90;;;;;;5133295;27;20034;-51
2022/03/30 03:49:27;;;;;;;36.28;18.42;;;5.50;99.90;;;;;;5133461;27;20035;-50
2022/03/30 03:51:52;;;;;;;34.95;18.58;;;5.50;99.90;;;;;;5133336;27;20111;-48
2022/03/30 03:54:18;;;;;;;33.53;18.23;;;5.50;99.90;;;;;;5132997;27;20562;-48
2022/03/30 03:56:44;;;;;;;37.53;19.05;;;5.40;99.90;;;;;;5133062;27;20386;-48
2022/03/30 03:59:10;;;;;;;34.47;18.27;;;5.40;99.90;;;;;;5133704;27;20035;-50
2022/03/30 04:01:36;;;;;;;37.65;19.25;;;5.50;99.90;;;;;;5133063;27;20077;-48
2022/03/30 04:04:02;;;;;;;38.92;20.08;;;5.40;99.90;;;;;;5133288;27;20504;-49
2022/03/30 04:06:29;;;;;;;36.40;18.38;;;5.50;99.90;;;;;;5132874;27;20043;-46
2022/03/30 04:08:55;;;;;;;36.53;18.73;;;5.50;99.90;;;;;;5132713;27;20045;-51
2022/03/30 04:11:21;;;;;;;40.53;18.73;;;5.50;99.90;;;;;;5132782;27;20080;-49
2022/03/30 04:13:47;;;;;;;37.92;18.40;;;5.50;99.90;;;;;;5132727;27;20039;-47
2022/03/30 04:16:16;;;;;;;38.72;18.50;;;5.50;99.90;;;;;;5132622;27;20053;-48
2022/03/30 04:18:42;;;;;;;39.33;18.88;;;5.50;99.90;;;;;;5132921;27;20046;-47
2022/03/30 04:21:08;;;;;;;41.75;19.15;;;5.50;99.90;;;;;;5132433;27;20138;-48
2022/03/30 04:23:34;;;;;;;37.33;19.08;;;5.60;99.90;;;;;;5132098;27;20039;-50
2022/03/30 04:25:59;;;;;;;34.03;18.33;;;5.70;99.90;;;;;;5132897;27;20038;-50
2022/03/30 04:28:25;;;;;;;37.92;19.05;;;5.50;99.90;;;;;;5132400;27;20113;-48
2022/03/30 04:30:51;;;;;;;38.63;18.08;;;5.60;99.90;;;;;;5132458;27;20043;-47
2022/03/30 04:33:17;;;;;;;36.97;18.17;;;5.60;99.90;;;;;;5132557;27;20058;-47
2022/03/30 04:35:42;;;;;;;37.97;18.98;;;5.70;99.90;;;;;;5132518;27;20405;-47
2022/03/30 04:38:08;;;;;;;35.47;17.90;;;5.60;99.90;;;;;;5132284;27;20489;-52
2022/03/30 04:40:34;;;;;;;36.25;18.10;;;5.60;99.90;;;;;;5132276;27;20027;-49
2022/03/30 04:43:00;;;;;;;39.35;18.98;;;5.60;99.90;;;;;;5132730;27;20037;-50
2022/03/30 04:45:26;;;;;;;34.10;16.85;;;5.60;99.90;;;;;;5113719;27;20050;-47
2022/03/30 04:47:54;;;;;;;35.80;16.75;;;5.60;99.90;;;;;;5132535;27;20027;-53
2022/03/30 04:50:24;;;;;;;36.30;16.63;;;5.70;99.90;;;;;;5131665;27;20085;-46
2022/03/30 04:52:51;;;;;;;36.08;15.70;;;5.70;99.90;;;;;;5132212;27;20522;-48
2022/03/30 04:55:16;;;;;;;37.33;16.33;;;5.70;99.90;;;;;;5131645;27;20047;-52
2022/03/30 04:57:42;;;;;;;37.85;16.65;;;5.70;99.90;;;;;;5130639;27;20027;-48
2022/03/30 05:00:12;;;;;;;29.10;15.35;;;5.70;99.90;;;;;;5131988;27;20455;-49
2022/03/30 05:02:39;;;;;;;41.20;17.48;;;5.70;99.90;;;;;;5131946;27;20035;-47
2022/03/30 05:05:08;;;;;;;37.53;16.40;;;5.60;99.90;;;;;;5132295;27;20023;-46
2022/03/30 05:07:33;;;;;;;36.10;16.40;;;5.70;99.90;;;;;;5113645;27;20042;-51
2022/03/30 05:09:59;;;;;;;34.67;16.58;;;5.70;99.90;;;;;;5131806;27;20035;-51
2022/03/30 05:12:25;;;;;;;34.15;15.23;;;5.70;99.90;;;;;;5131723;27;20043;-47
2022/03/30 05:14:52;;;;;;;35.15;16.15;;;5.70;99.90;;;;;;5131968;27;20592;-50
2022/03/30 05:17:18;;;;;;;37.47;17.10;;;5.70;99.90;;;;;;5129778;27;20425;-51
2022/03/30 05:19:44;;;;;;;42.22;16.55;;;5.80;99.90;;;;;;5131503;27;20489;-47
2022/03/30 05:22:11;;;;;;;40.53;16.92;;;5.70;99.90;;;;;;5131662;27;20040;-50
2022/03/30 05:24:37;;;;;;;38.65;16.40;;;5.70;99.90;;;;;;5131354;28;20027;-48
2022/03/30 05:27:03;;;;;;;39.55;17.50;;;5.70;99.90;;;;;;5131248;28;20027;-47
2022/03/30 05:29:29;;;;;;;39.33;15.73;;;5.70;99.90;;;;;;5131526;28;20418;-48
2022/03/30 05:31:55;;;;;;;36.65;16.85;;;5.70;99.90;;;;;;5131518;28;20074;-48
2022/03/30 05:34:21;;;;;;;37.58;16.50;;;5.70;99.90;;;;;;5131732;28;20066;-47
2022/03/30 05:36:47;;;;;;;36.80;16.27;;;5.60;99.90;;;;;;5131525;28;20118;-48
2022/03/30 05:39:12;;;;;;;34.42;15.43;;;5.80;99.90;;;;;;5131517;28;20127;-51
2022/03/30 05:41:38;;;;;;;39.63;16.30;;;5.70;99.90;;;;;;5112621;28;20047;-50
2022/03/30 05:44:04;;;;;;;37.03;15.75;;;5.60;99.90;;;;;;5131761;28;20031;-47
2022/03/30 05:46:30;;;;;;;31.00;13.68;;;5.80;99.90;;;;;;5131333;28;20136;-47
2022/03/30 05:48:55;;;;;;;39.38;15.18;;;5.70;99.90;;;;;;5131278;28;20028;-51
2022/03/30 05:51:21;;;;;;;30.70;13.65;;;5.70;99.90;;;;;;5131387;28;20545;-49
2022/03/30 05:53:47;;;;;;;32.03;12.65;;;5.60;99.90;;;;;;5130647;28;20087;-51
2022/03/30 05:56:13;;;;;;;30.48;12.40;;;5.60;99.90;;;;;;5131161;28;20050;-46
2022/03/30 05:58:39;;;;;;;22.92;11.05;;;5.80;99.90;;;;;;5131534;28;20473;-50
2022/03/30 06:01:06;;;;;;;24.10;10.70;;;5.70;99.90;;;;;;5112491;28;20118;-47
2022/03/30 06:03:37;;;;;;;19.85;9.82;;;5.60;99.90;;;;;;5133766;27;20035;-49
2022/03/30 06:06:04;;;;;;;23.00;9.30;;;5.80;99.90;;;;;;5135238;27;20039;-48
2022/03/30 06:08:30;;;;;;;18.95;8.05;;;5.60;99.90;;;;;;5116791;27;20067;-50
2022/03/30 06:10:56;;;;;;;15.90;7.88;;;5.60;99.90;;;;;;5134949;27;20039;-47
2022/03/30 06:13:22;;;;;;;13.93;7.05;;;5.60;99.90;;;;;;5135533;27;20039;-50
2022/03/30 06:15:48;;;;;;;19.45;6.72;;;5.60;99.90;;;;;;5135053;27;20039;-46
2022/03/30 06:18:15;;;;;;;14.90;6.68;;;5.80;99.90;;;;;;5135139;27;20489;-51
2022/03/30 06:20:41;;;;;;;12.00;5.40;;;5.70;99.90;;;;;;5134488;27;20391;-52
2022/03/30 06:23:07;;;;;;;11.60;5.00;;;5.80;99.90;;;;;;5134752;27;20070;-47
2022/03/30 06:25:33;;;;;;;8.05;3.40;;;5.80;99.90;;;;;;5134646;27;20063;-46
2022/03/30 06:27:59;;;;;;;9.20;3.65;;;5.90;99.90;;;;;;5135154;27;20454;-52
2022/03/30 06:30:25;;;;;;;9.45;3.45;;;5.90;99.90;;;;;;5134522;27;20501;-48
2022/03/30 06:32:52;;;;;;;8.63;3.13;;;5.90;99.90;;;;;;5134932;27;20574;-54
2022/03/30 06:35:19;;;;;;;5.65;2.40;;;5.80;99.90;;;;;;5134839;27;20347;-49
2022/03/30 06:37:46;;;;;;;6.63;2.35;;;5.90;99.90;;;;;;5133150;27;20456;-49
2022/03/30 06:40:14;;;;;;;6.10;2.47;;;5.90;99.90;;;;;;5134512;27;20039;-52
2022/03/30 06:42:40;;;;;;;4.90;1.60;;;5.90;99.90;;;;;;5134704;27;20488;-48
2022/03/30 06:45:07;;;;;;;4.22;1.80;;;5.90;99.90;;;;;;5134393;27;20134;-48
2022/03/30 06:47:33;;;;;;;3.75;1.50;;;5.90;99.90;;;;;;5134465;27;20300;-48
2022/03/30 06:49:59;;;;;;;6.18;1.58;;;6.10;99.90;;;;;;5134538;27;20039;-51
2022/03/30 06:52:24;;;;;;;6.55;1.80;;;6.00;99.90;;;;;;5134279;27;20100;-50
2022/03/30 06:54:50;;;;;;;4.60;1.58;;;5.90;99.90;;;;;;5127542;27;20035;-52
2022/03/30 06:57:16;;;;;;;3.50;1.55;;;5.90;99.90;;;;;;5131764;27;20073;-47
2022/03/30 06:59:41;;;;;;;5.90;1.50;;;6.00;99.90;;;;;;5126170;27;20035;-50
2022/03/30 07:02:07;;;;;;;3.40;1.50;;;6.10;99.90;;;;;;5124935;27;20043;-54
2022/03/30 07:04:35;;;;;;;5.68;1.80;;;6.20;99.90;;;;;;5127244;27;20031;-52
2022/03/30 07:12:31;;;;;;;5.18;1.30;;;6.30;99.90;;;;;;5124067;27;20051;-52
2022/03/30 07:14:57;;;;;;;4.68;1.20;;;6.30;99.90;;;;;;5125380;27;20043;-52
2022/03/30 07:17:22;;;;;;;2.95;1.20;;;6.20;99.90;;;;;;5127114;27;20493;-49
2022/03/30 07:19:48;;;;;;;3.88;1.10;;;6.40;99.90;;;;;;5124732;27;20042;-49
2022/03/30 07:22:14;;;;;;;2.42;1.00;;;6.40;99.90;;;;;;5126379;27;20055;-49
2022/03/30 07:24:41;;;;;;;2.33;1.00;;;6.50;99.90;;;;;;5124589;27;20047;-51
2022/03/30 07:27:07;;;;;;;5.60;1.10;;;6.40;99.90;;;;;;5128456;27;20035;-49
2022/03/30 07:29:33;;;;;;;2.97;1.27;;;6.50;99.90;;;;;;5127219;27;20039;-51
2022/03/30 07:31:58;;;;;;;3.83;1.20;;;6.60;99.90;;;;;;5124540;27;20053;-48
2022/03/30 07:34:24;;;;;;;4.50;1.30;;;6.50;99.90;;;;;;5107593;27;20058;-48
2022/03/30 07:36:50;;;;;;;2.83;1.30;;;6.60;99.90;;;;;;5124845;27;20145;-50
2022/03/30 07:39:16;;;;;;;3.63;1.30;;;6.60;99.90;;;;;;5106889;27;20046;-50
2022/03/30 07:41:42;;;;;;;3.92;1.30;;;6.60;99.90;;;;;;5125840;27;20027;-51
2022/03/30 07:44:07;;;;;;;3.15;1.25;;;6.70;99.90;;;;;;5125862;27;20501;-49
2022/03/30 07:46:33;;;;;;;3.50;1.55;;;6.70;99.90;;;;;;5122028;27;20109;-48
2022/03/30 07:48:59;;;;;;;5.25;1.50;;;6.70;99.90;;;;;;5122670;27;20401;-51
2022/03/30 07:51:25;;;;;;;2.40;1.40;;;6.80;99.90;;;;;;5124152;27;20039;-47
2022/03/30 07:53:51;;;;;;;3.90;1.90;;;7.00;99.90;;;;;;5121133;27;20064;-49
2022/03/30 07:56:16;;;;;;;4.22;1.70;;;6.90;99.90;;;;;;5123190;27;20126;-50
2022/03/30 07:58:42;;;;;;;3.83;1.90;;;6.80;99.90;;;;;;5108716;27;20134;-48
2022/03/30 08:01:08;;;;;;;3.47;1.67;;;6.90;99.90;;;;;;5124666;27;20061;-51
2022/03/30 08:03:34;;;;;;;3.92;1.50;;;6.90;99.90;;;;;;5120616;27;20118;-52
2022/03/30 08:06:00;;;;;;;4.32;1.88;;;6.90;99.90;;;;;;5124065;27;20047;-51
2022/03/30 08:08:26;;;;;;;3.65;1.50;;;6.90;99.90;;;;;;5119757;27;20509;-49
2022/03/30 08:10:53;;;;;;;5.82;1.90;;;7.00;99.90;;;;;;5120033;27;20039;-48
2022/03/30 08:13:19;;;;;;;5.07;2.13;;;7.10;99.90;;;;;;5124052;27;20054;-48
2022/03/30 08:15:45;;;;;;;3.83;1.90;;;7.20;99.90;;;;;;5122714;27;20502;-47
2022/03/30 08:18:11;;;;;;;4.85;2.00;;;7.20;99.90;;;;;;5122110;27;20492;-49
2022/03/30 08:23:21;;;;;;;4.72;2.30;;;7.20;99.90;;;;;;5122865;27;20091;-49
2022/03/30 08:25:47;;;;;;;5.45;2.08;;;7.20;99.90;;;;;;5121813;27;20647;-50
2022/03/30 08:28:13;;;;;;;4.65;1.80;;;7.30;99.90;;;;;;5124793;27;20085;-48
2022/03/30 08:30:39;;;;;;;4.25;1.80;;;7.40;99.90;;;;;;5121947;27;20122;-48
2022/03/30 08:33:05;;;;;;;3.47;1.60;;;7.50;99.90;;;;;;5104857;27;20378;-48
2022/03/30 08:35:32;;;;;;;4.75;1.88;;;7.60;99.90;;;;;;5121666;27;20049;-53
2022/03/30 08:37:57;;;;;;;4.68;1.60;;;7.70;99.90;;;;;;5104754;27;20061;-50
2022/03/30 08:40:24;;;;;;;4.32;1.40;;;7.70;99.90;;;;;;5124926;27;20039;-49
2022/03/30 08:42:50;;;;;;;3.92;1.55;;;7.80;99.90;;;;;;5123323;27;20041;-51
2022/03/30 08:45:16;;;;;;;5.88;1.40;;;7.80;99.90;;;;;;5122327;27;20035;-49
2022/03/30 08:47:42;;;;;;;4.55;1.77;;;7.70;99.90;;;;;;5123471;27;20062;-52
2022/03/30 08:50:08;;;;;;;4.05;1.27;;;7.70;99.90;;;;;;5122144;27;20046;-46
2022/03/30 08:52:33;;;;;;;3.22;1.30;;;7.80;99.90;;;;;;5123427;27;20031;-47
2022/03/30 08:54:59;;;;;;;3.88;1.40;;;7.70;99.90;;;;;;5123961;27;20402;-49
2022/03/30 08:57:26;;;;;;;4.13;1.27;;;7.80;99.90;;;;;;5122146;27;20035;-51
2022/03/30 09:00:13;;;;;;;5.30;1.33;;;8.10;99.90;;;;;;5122910;27;20150;-48
2022/03/30 09:02:42;;;;;;;3.85;1.38;;;8.00;99.90;;;;;;5122148;27;20071;-48
2022/03/30 09:05:28;;;;;;;2.72;1.08;;;8.20;99.90;;;;;;5122807;27;20440;-53
2022/03/30 09:08:10;;;;;;;5.30;1.10;;;8.30;99.90;;;;;;5121577;27;20035;-49
2022/03/30 09:10:37;;;;;;;3.92;1.13;;;8.20;99.90;;;;;;5123938;27;20541;-51
2022/03/30 09:13:04;;;;;;;3.25;1.00;;;8.30;99.90;;;;;;5104521;27;20040;-50
2022/03/30 09:15:31;;;;;;;5.70;1.35;;;8.30;99.90;;;;;;5122321;27;20080;-49
2022/03/30 09:18:03;;;;;;;4.15;1.10;;;8.20;99.90;;;;;;5125745;27;20431;-50
2022/03/30 09:20:29;;;;;;;5.53;1.60;;;8.60;99.90;;;;;;5123412;27;20031;-48
2022/03/30 09:22:57;;;;;;;4.80;1.20;;;8.80;99.90;;;;;;5124286;27;20043;-49
2022/03/30 09:25:24;;;;;;;4.90;1.30;;;8.90;99.90;;;;;;5124119;27;20483;-49
2022/03/30 09:27:53;;;;;;;5.75;1.20;;;9.00;99.90;;;;;;5123411;27;20059;-48
2022/03/30 09:30:19;;;;;;;4.22;1.20;;;9.10;99.90;;;;;;5124000;27;20042;-51
2022/03/30 09:32:46;;;;;;;4.90;0.90;;;8.90;99.90;;;;;;5125625;28;20031;-54
2022/03/30 09:35:25;;;;;;;5.13;1.05;;;9.00;99.90;;;;;;5127117;28;20466;-51
2022/03/30 09:38:13;;;;;;;4.70;1.40;;;9.20;99.90;;;;;;5129359;27;20057;-48
2022/03/30 09:40:47;;;;;;;3.35;1.10;;;9.40;99.90;;;;;;5134050;27;20027;-52
2022/03/30 09:43:23;;;;;;;5.43;1.40;;;9.50;99.90;;;;;;5135914;27;20478;-50
2022/03/30 09:46:02;;;;;;;5.18;1.27;;;9.40;99.90;;;;;;5135397;27;20083;-50
2022/03/30 09:48:28;;;;;;;5.47;1.30;;;9.60;99.90;;;;;;5135807;27;20110;-47
2022/03/30 09:50:55;;;;;;;5.35;1.30;;;9.60;99.90;;;;;;5135435;27;20046;-48
2022/03/30 09:53:28;;;;;;;4.75;1.23;;;9.60;99.90;;;;;;5135406;27;20035;-50
2022/03/30 09:56:02;;;;;;;8.02;1.70;;;9.60;99.90;;;;;;5134859;27;20038;-48
2022/03/30 09:58:30;;;;;;;3.50;1.00;;;9.70;99.90;;;;;;5135634;27;20588;-50
2022/03/30 10:01:03;;;;;;;4.53;1.10;;;9.50;99.90;;;;;;5135188;27;20363;-48
2022/03/30 10:03:41;;;;;;;5.03;1.30;;;9.60;99.90;;;;;;5135281;27;20047;-48
2022/03/30 10:06:09;;;;;;;3.92;1.10;;;9.40;99.90;;;;;;5135339;27;20027;-52
2022/03/30 10:08:34;;;;;;;3.95;1.20;;;9.60;99.90;;;;;;5135082;27;20050;-51
2022/03/30 10:11:00;;;;;;;2.63;0.80;;;9.60;99.90;;;;;;5135369;27;20039;-50
2022/03/30 10:13:26;;;;;;;4.10;1.00;;;9.50;99.90;;;;;;5135207;27;20035;-53
2022/03/30 10:15:53;;;;;;;6.03;1.10;;;9.60;99.90;;;;;;5134868;27;20053;-50
2022/03/30 10:18:23;;;;;;;6.47;1.30;;;9.50;99.90;;;;;;5134972;27;20112;-50
2022/03/30 10:21:02;;;;;;;2.00;0.80;;;9.40;99.90;;;;;;5134624;27;20063;-46
2022/03/30 10:24:02;;;;;;;4.15;0.90;;;9.50;99.90;;;;;;5135037;27;20398;-51
2022/03/30 10:26:58;;;;;;;7.28;1.20;;;9.60;99.90;;;;;;5135084;27;20386;-51
2022/03/30 10:29:26;;;;;;;4.10;1.08;;;9.70;99.90;;;;;;5123907;27;20509;-48
2022/03/30 10:32:17;;;;;;;3.03;1.05;;;9.70;99.90;;;;;;5123450;27;20568;-46
2022/03/30 10:34:57;;;;;;;4.03;1.30;;;9.70;99.90;;;;;;5126845;27;20042;-48
2022/03/30 10:37:30;;;;;;;2.92;1.00;;;9.60;99.90;;;;;;5127880;27;20047;-52
2022/03/30 10:40:08;;;;;;;4.53;1.30;;;9.70;99.90;;;;;;5127594;27;20525;-48
2022/03/30 10:42:46;;;;;;;3.70;1.23;;;9.60;99.90;;;;;;5128451;27;20047;-46
2022/03/30 10:45:41;;;;;;;3.10;1.17;;;9.80;99.90;;;;;;5126817;27;20515;-47
2022/03/30 10:48:10;;;;;;;3.80;1.27;;;10.00;99.90;;;;;;5125793;27;20409;-49
2022/03/30 10:50:47;;;;;;;5.00;1.60;;;9.90;99.90;;;;;;5126631;27;20066;-46
2022/03/30 10:53:31;;;;;;;4.88;1.38;;;10.20;99.90;;;;;;5126120;27;20031;-48
2022/03/30 10:56:09;;;;;;;2.95;1.33;;;10.30;99.90;;;;;;5127211;27;20126;-52
2022/03/30 10:59:00;;;;;;;6.28;1.70;;;10.40;99.90;;;;;;5127778;27;20058;-48
2022/03/30 11:01:28;;;;;;;5.18;1.30;;;10.60;99.90;;;;;;5126065;27;20432;-51
2022/03/30 11:04:16;;;;;;;5.78;1.63;;;10.50;99.90;;;;;;5126224;27;20031;-46
2022/03/30 11:06:44;;;;;;;6.78;1.60;;;10.60;99.90;;;;;;5126144;27;20038;-48
2022/03/30 11:09:22;;;;;;;5.45;1.50;;;10.70;99.90;;;;;;5108146;27;20104;-49
2022/03/30 11:12:17;;;;;;;5.05;1.30;;;10.70;99.90;;;;;;5125044;27;20027;-52
2022/03/30 11:14:58;;;;;;;;;;;10.70;99.90;;;;;;5123325;27;20051;-48
2022/03/30 11:17:32;;;;;;;3.55;1.48;;;10.80;99.90;;;;;;5125210;27;20355;-48
2022/03/30 11:19:58;;;;;;;5.47;1.30;;;10.80;99.90;;;;;;5126938;27;21075;-47
2022/03/30 11:22:37;;;;;;;6.68;1.60;;;10.60;99.90;;;;;;5128249;27;20043;-48
2022/03/30 11:25:18;;;;;;;3.80;1.70;;;10.80;99.90;;;;;;5131493;27;20114;-47
2022/03/30 11:27:47;;;;;;;4.75;1.90;;;10.90;99.90;;;;;;5124880;27;20122;-53
2022/03/30 11:30:18;;;;;;;4.45;1.77;;;10.90;99.90;;;;;;5131307;27;20077;-46
2022/03/30 11:35:28;;;;;;;4.75;2.22;;;10.20;99.90;;;;;;5468871;22;20065;-48
2022/03/30 11:38:02;;;;;;;6.20;2.55;;;10.40;99.90;;;;;;5011679;28;20491;-47
2022/03/30 11:40:28;;;;;;;5.20;2.38;;;10.70;99.90;;;;;;5012163;28;20119;-48
2022/03/30 11:42:57;;;;;;;4.28;1.92;;;10.50;99.90;;;;;;5012825;28;20481;-47
2022/03/30 11:45:25;;;;;;;3.42;1.92;;;10.30;99.90;;;;;;5012606;28;20042;-50
2022/03/30 11:47:55;;;;;;;4.47;1.95;;;10.50;99.90;;;;;;5012316;28;20069;-46
2022/03/30 11:50:35;;;;;;;7.10;1.70;;;10.80;99.90;;;;;;5012510;28;20092;-51
2022/03/30 11:53:01;;;;;;;4.25;1.80;;;11.00;99.90;;;;;;4993428;28;20460;-45
2022/03/30 11:55:29;;;;;;;5.03;1.70;;;11.10;99.90;;;;;;5011768;28;20435;-51
2022/03/30 11:57:57;;;;;;;3.65;1.80;;;11.10;99.90;;;;;;5012261;28;20040;-49
2022/03/30 12:00:25;;;;;;;3.58;1.40;;;11.30;99.90;;;;;;5010951;28;20065;-50
2022/03/30 12:02:55;;;;;;;4.15;1.52;;;11.00;99.90;;;;;;4994372;28;20034;-50
2022/03/30 12:05:21;;;;;;;5.32;1.63;;;10.90;99.90;;;;;;5011943;28;20052;-48
2022/03/30 12:07:55;;;;;;;5.18;1.50;;;10.80;99.90;;;;;;5011785;28;20081;-50
2022/03/30 12:10:26;;;;;;;4.00;1.50;;;10.70;99.90;;;;;;5012312;28;20397;-48
2022/03/30 12:12:52;;;;;;;5.68;1.60;;;10.70;99.90;;;;;;5011835;28;20037;-48
2022/03/30 12:15:19;;;;;;;4.47;1.48;;;10.50;99.90;;;;;;5011824;28;20030;-47
2022/03/30 12:17:57;;;;;;;4.55;1.55;;;10.20;99.90;;;;;;5012053;28;20432;-47
2022/03/30 12:20:22;;;;;;;4.53;1.63;;;10.30;99.90;;;;;;5011917;28;20129;-49
2022/03/30 12:22:58;;;;;;;3.95;1.65;;;10.50;99.90;;;;;;5012140;28;20112;-45
2022/03/30 12:25:27;;;;;;;5.00;1.25;;;10.50;99.90;;;;;;5011165;28;20034;-48
2022/03/30 12:27:53;;;;;;;6.20;1.58;;;10.40;99.90;;;;;;4994437;28;20033;-48
2022/03/30 12:30:19;;;;;;;4.80;1.60;;;10.00;99.90;;;;;;5011812;28;20374;-45
2022/03/30 12:32:44;;;;;;;4.03;1.40;;;10.30;99.90;;;;;;5011718;28;20108;-46
2022/03/30 12:35:14;;;;;;;4.88;1.60;;;10.30;99.90;;;;;;5011698;28;20080;-46
2022/03/30 12:37:43;;;;;;;7.97;1.73;;;10.20;99.90;;;;;;5011020;28;20551;-45
2022/03/30 12:40:21;;;;;;;5.65;1.70;;;10.20;99.90;;;;;;5011620;28;20038;-47
2022/03/30 12:42:48;;;;;;;4.68;1.50;;;10.20;99.90;;;;;;5010979;28;20388;-44
2022/03/30 12:45:17;;;;;;;3.70;1.38;;;10.30;99.90;;;;;;4993631;28;20408;-48
2022/03/30 12:47:54;;;;;;;2.38;1.10;;;10.20;99.90;;;;;;5011347;28;20042;-48
2022/03/30 12:50:27;;;;;;;6.40;1.40;;;10.10;99.90;;;;;;5011436;28;20069;-46
2022/03/30 12:52:54;;;;;;;4.00;1.40;;;10.40;99.90;;;;;;5011396;28;20045;-49
2022/03/30 12:55:27;;;;;;;6.88;1.50;;;10.20;99.90;;;;;;5010793;28;20042;-49
2022/03/30 12:58:24;;;;;;;3.90;1.15;;;10.40;99.90;;;;;;5011547;28;20041;-48
2022/03/30 13:00:52;;;;;;;3.92;1.00;;;10.60;99.90;;;;;;4987118;28;20054;-50
2022/03/30 13:03:19;;;;;;;3.05;1.10;;;10.60;99.90;;;;;;4991626;28;20114;-45
2022/03/30 13:05:46;;;;;;;3.25;1.30;;;10.80;99.90;;;;;;4991725;28;20038;-46